Time;durP1;ratioP1;P1;durP2;ratioP2;P2;SDS_P1;SDS_P2;PMS_P1;PMS_P2;Temp;Humidity;BMP_temperature;BMP_pressure;BME280_temperature;BME280_humidity;BME280_pressure;Samples;Min_cycle;Max_cycle;Signal;HPM_P1;HPM_P2
2021/01/28 00:02:14;;;;;;;5.45;2.83;;;1.90;98.00;;;;;;5033205;28;20029;-68
2021/01/28 00:04:40;;;;;;;6.07;3.30;;;1.90;98.00;;;;;;5030822;28;20244;-68
2021/01/28 00:07:06;;;;;;;4.75;2.80;;;2.00;98.00;;;;;;5034684;28;20030;-68
2021/01/28 00:09:31;;;;;;;5.22;3.10;;;2.00;98.00;;;;;;5026670;28;20044;-68
2021/01/28 00:11:57;;;;;;;4.10;2.60;;;2.00;98.00;;;;;;5026371;28;20029;-68
2021/01/28 00:14:23;;;;;;;4.40;2.70;;;2.00;98.00;;;;;;5030419;28;20026;-68
2021/01/28 00:16:49;;;;;;;4.07;2.85;;;2.00;98.00;;;;;;5030748;28;20045;-68
2021/01/28 00:19:15;;;;;;;5.18;2.90;;;2.00;98.00;;;;;;5026283;28;20040;-67
2021/01/28 00:21:40;;;;;;;4.43;2.60;;;2.00;98.00;;;;;;5028842;28;20056;-70
2021/01/28 00:24:06;;;;;;;3.92;2.33;;;2.00;98.00;;;;;;5023321;28;20065;-67
2021/01/28 00:26:32;;;;;;;3.95;2.38;;;2.00;98.00;;;;;;5027785;28;20101;-67
2021/01/28 00:28:57;;;;;;;4.40;2.13;;;2.00;98.00;;;;;;5018535;28;20391;-68
2021/01/28 00:31:23;;;;;;;3.95;2.15;;;2.00;98.00;;;;;;5026352;28;20032;-67
2021/01/28 00:33:49;;;;;;;4.00;2.17;;;2.10;98.00;;;;;;5017854;28;20459;-69
2021/01/28 00:36:14;;;;;;;3.63;2.10;;;2.10;98.00;;;;;;5026168;28;20034;-69
2021/01/28 00:38:40;;;;;;;6.20;2.30;;;2.10;98.00;;;;;;5026251;28;20017;-69
2021/01/28 00:41:08;;;;;;;3.78;2.30;;;2.20;98.00;;;;;;5029620;28;20591;-68
2021/01/28 00:43:34;;;;;;;3.90;1.77;;;2.10;98.00;;;;;;5020167;28;20033;-68
2021/01/28 00:46:00;;;;;;;4.82;1.85;;;2.20;98.00;;;;;;5028256;28;20495;-67
2021/01/28 00:48:26;;;;;;;4.20;2.05;;;2.20;98.00;;;;;;5027895;28;20104;-69
2021/01/28 00:50:53;;;;;;;4.22;2.13;;;2.30;98.00;;;;;;5032420;28;20030;-70
2021/01/28 00:53:21;;;;;;;2.92;1.65;;;2.30;98.00;;;;;;5032912;28;20099;-68
2021/01/28 00:55:47;;;;;;;2.22;1.48;;;2.30;98.00;;;;;;5018448;28;20487;-69
2021/01/28 00:58:15;;;;;;;2.78;1.60;;;2.30;98.00;;;;;;5028975;28;20457;-67
2021/01/28 01:00:44;;;;;;;3.65;1.60;;;2.30;98.00;;;;;;5034218;28;20029;-67
2021/01/28 01:03:12;;;;;;;2.42;1.50;;;2.30;98.00;;;;;;5036703;28;20032;-68
2021/01/28 01:05:38;;;;;;;2.45;1.50;;;2.30;98.00;;;;;;5018924;28;20140;-68
2021/01/28 01:08:06;;;;;;;2.33;1.45;;;2.30;98.00;;;;;;5035847;28;20371;-69
2021/01/28 01:10:39;;;;;;;2.17;1.40;;;2.40;98.00;;;;;;5023085;28;20038;-68
2021/01/28 01:13:07;;;;;;;4.13;1.30;;;2.40;98.00;;;;;;5030754;28;20076;-68
2021/01/28 01:15:33;;;;;;;1.95;1.20;;;2.40;98.00;;;;;;5031483;28;20308;-68
2021/01/28 01:17:59;;;;;;;2.38;1.38;;;2.40;98.00;;;;;;5034106;28;20131;-67
2021/01/28 01:20:25;;;;;;;2.67;1.40;;;2.40;98.00;;;;;;5030426;28;20100;-68
2021/01/28 01:22:51;;;;;;;2.15;1.20;;;2.40;98.00;;;;;;5026265;28;20109;-69
2021/01/28 01:25:20;;;;;;;2.13;1.40;;;2.40;98.00;;;;;;5032275;28;20075;-67
2021/01/28 01:27:46;;;;;;;2.08;1.23;;;2.40;98.00;;;;;;5030244;28;20044;-67
2021/01/28 01:30:14;;;;;;;4.65;1.20;;;2.40;98.00;;;;;;5028417;28;20478;-68
2021/01/28 01:32:39;;;;;;;1.52;1.20;;;2.40;98.00;;;;;;5019860;28;20415;-67
2021/01/28 01:35:10;;;;;;;1.27;1.10;;;2.40;98.00;;;;;;5024975;28;20033;-69
2021/01/28 01:37:35;;;;;;;1.35;1.00;;;2.40;98.00;;;;;;5020636;28;20025;-67
2021/01/28 01:40:03;;;;;;;3.42;1.20;;;2.50;98.00;;;;;;5026587;28;20048;-67
2021/01/28 01:42:31;;;;;;;2.20;1.27;;;2.50;98.00;;;;;;5026298;28;20036;-67
2021/01/28 01:45:01;;;;;;;2.13;1.20;;;2.50;98.00;;;;;;5019785;28;20132;-68
2021/01/28 01:47:36;;;;;;;1.20;1.00;;;2.50;98.00;;;;;;5023699;28;20049;-67
2021/01/28 01:50:06;;;;;;;1.85;1.10;;;2.50;98.00;;;;;;5022952;28;20116;-68
2021/01/28 01:52:35;;;;;;;1.40;1.00;;;2.60;98.00;;;;;;5023308;28;20121;-67
2021/01/28 01:55:02;;;;;;;1.15;0.98;;;2.60;98.00;;;;;;5036879;28;20444;-67
2021/01/28 01:57:37;;;;;;;1.77;1.00;;;2.60;98.00;;;;;;5022258;28;20025;-67
2021/01/28 02:00:11;;;;;;;1.00;0.90;;;2.60;98.00;;;;;;5019378;28;20120;-68
2021/01/28 02:02:39;;;;;;;3.70;1.30;;;2.60;98.00;;;;;;5019879;28;20125;-67
2021/01/28 02:05:21;;;;;;;1.77;1.10;;;2.70;98.00;;;;;;5019077;28;20426;-69
2021/01/28 02:07:48;;;;;;;2.00;1.15;;;2.60;98.00;;;;;;5026604;28;20403;-69
2021/01/28 02:10:17;;;;;;;2.10;1.20;;;2.50;98.00;;;;;;5023673;28;20069;-69
2021/01/28 02:12:44;;;;;;;1.33;1.00;;;2.50;98.00;;;;;;5026112;28;20426;-69
2021/01/28 02:15:11;;;;;;;1.48;1.00;;;2.40;98.00;;;;;;5024157;28;20038;-69
2021/01/28 02:17:41;;;;;;;1.80;1.00;;;2.40;98.00;;;;;;5023710;28;20552;-69
2021/01/28 02:20:06;;;;;;;1.58;1.00;;;2.40;98.00;;;;;;5031055;28;20088;-69
2021/01/28 02:22:50;;;;;;;1.73;0.90;;;2.40;98.00;;;;;;5028348;28;20026;-68
2021/01/28 02:25:21;;;;;;;1.65;0.90;;;2.40;98.00;;;;;;5025656;28;20029;-69
2021/01/28 02:27:47;;;;;;;1.17;0.90;;;2.40;98.00;;;;;;5032723;28;20350;-69
2021/01/28 02:30:17;;;;;;;1.17;0.90;;;2.40;98.00;;;;;;5035811;28;20030;-68
2021/01/28 02:32:54;;;;;;;1.13;0.90;;;2.50;98.00;;;;;;5019702;28;20030;-67
2021/01/28 02:35:24;;;;;;;2.28;1.05;;;2.50;98.00;;;;;;5019246;28;20433;-69
2021/01/28 02:37:51;;;;;;;1.70;1.08;;;2.50;98.00;;;;;;5025562;28;20037;-68
2021/01/28 02:40:21;;;;;;;1.00;0.90;;;2.50;98.00;;;;;;5024314;28;20049;-68
2021/01/28 02:42:48;;;;;;;0.95;0.80;;;2.40;98.00;;;;;;5022865;28;20124;-67
2021/01/28 02:45:20;;;;;;;1.30;0.93;;;2.40;98.00;;;;;;5027278;28;20033;-69
2021/01/28 02:47:57;;;;;;;0.95;0.80;;;2.40;98.00;;;;;;5030681;28;20042;-68
2021/01/28 02:50:23;;;;;;;2.25;1.13;;;2.50;98.00;;;;;;5028676;28;20033;-69
2021/01/28 02:52:54;;;;;;;1.27;1.00;;;2.50;98.00;;;;;;5022723;28;20036;-68
2021/01/28 02:55:20;;;;;;;1.60;1.05;;;2.50;98.00;;;;;;5032226;28;20026;-67
2021/01/28 02:57:46;;;;;;;1.00;0.90;;;2.40;98.00;;;;;;5033929;28;20329;-69
2021/01/28 03:00:14;;;;;;;1.20;0.93;;;2.40;98.00;;;;;;5032305;28;20029;-69
2021/01/28 03:02:40;;;;;;;1.00;0.90;;;2.50;98.00;;;;;;5030328;28;20029;-69
2021/01/28 03:05:07;;;;;;;1.23;0.90;;;2.50;98.00;;;;;;5035061;28;20033;-68
2021/01/28 03:07:32;;;;;;;0.95;0.88;;;2.50;98.00;;;;;;5035188;28;20025;-68
2021/01/28 03:09:58;;;;;;;1.20;1.00;;;2.50;98.00;;;;;;5019698;28;20048;-69
2021/01/28 03:12:23;;;;;;;0.98;0.82;;;2.30;98.00;;;;;;5021130;28;20033;-69
2021/01/28 03:14:49;;;;;;;1.17;0.93;;;2.30;98.00;;;;;;5023397;28;20025;-69
2021/01/28 03:17:15;;;;;;;0.80;0.80;;;2.40;98.00;;;;;;5028552;28;20033;-69
2021/01/28 03:19:40;;;;;;;1.00;0.90;;;2.40;98.00;;;;;;5027533;28;20517;-70
2021/01/28 03:22:06;;;;;;;0.90;0.80;;;2.60;98.00;;;;;;5030570;28;20323;-68
2021/01/28 03:24:32;;;;;;;1.02;0.90;;;2.60;98.00;;;;;;5017540;28;20040;-69
2021/01/28 03:27:00;;;;;;;1.00;0.80;;;2.60;98.00;;;;;;5031861;28;20330;-68
2021/01/28 03:29:25;;;;;;;1.05;0.90;;;2.60;98.00;;;;;;5024216;28;20038;-68
2021/01/28 03:31:51;;;;;;;0.98;0.88;;;2.60;98.00;;;;;;5032199;28;20021;-69
2021/01/28 03:34:17;;;;;;;1.00;0.90;;;2.60;98.00;;;;;;5028890;28;20419;-69
2021/01/28 03:36:42;;;;;;;0.90;0.80;;;2.60;98.00;;;;;;5033281;28;20036;-69
2021/01/28 03:39:09;;;;;;;1.55;1.00;;;2.60;98.00;;;;;;5026827;28;20025;-68
2021/01/28 03:41:34;;;;;;;1.00;0.90;;;2.60;98.00;;;;;;5033647;28;20037;-69
2021/01/28 03:44:00;;;;;;;0.95;0.85;;;2.60;98.00;;;;;;5033438;28;20037;-69
2021/01/28 03:46:26;;;;;;;1.08;0.95;;;2.60;98.00;;;;;;5028177;28;20022;-68
2021/01/28 03:48:52;;;;;;;1.05;0.93;;;2.60;98.00;;;;;;5026874;28;20105;-68
2021/01/28 03:51:17;;;;;;;0.90;0.80;;;2.70;98.00;;;;;;5023210;28;20108;-69
2021/01/28 03:53:43;;;;;;;1.17;1.00;;;2.60;98.00;;;;;;5026769;28;20025;-69
2021/01/28 03:56:09;;;;;;;1.10;1.00;;;2.70;98.00;;;;;;5024962;28;20021;-69
2021/01/28 03:58:34;;;;;;;1.55;1.17;;;2.70;98.00;;;;;;5022185;28;20018;-69
2021/01/28 04:01:00;;;;;;;1.67;1.15;;;2.80;98.00;;;;;;5021714;28;20119;-68
2021/01/28 04:03:25;;;;;;;2.00;1.13;;;2.80;98.00;;;;;;5029864;28;20025;-70
2021/01/28 04:05:51;;;;;;;2.20;1.33;;;2.70;98.00;;;;;;5030266;28;20116;-70
2021/01/28 04:08:19;;;;;;;2.13;1.27;;;2.70;98.00;;;;;;5029558;28;20037;-68
2021/01/28 04:10:45;;;;;;;1.95;1.25;;;2.70;98.00;;;;;;5028887;28;20586;-68
2021/01/28 04:13:11;;;;;;;2.90;1.48;;;2.70;98.00;;;;;;5028391;28;20025;-70
2021/01/28 04:15:37;;;;;;;3.75;1.98;;;2.60;98.00;;;;;;5030090;28;20128;-69
2021/01/28 04:18:03;;;;;;;2.58;1.50;;;2.60;98.00;;;;;;5029690;28;20034;-70
2021/01/28 04:20:32;;;;;;;2.90;1.77;;;2.60;98.00;;;;;;5027291;28;20026;-68
2021/01/28 04:22:59;;;;;;;4.03;2.25;;;2.60;98.00;;;;;;5022805;28;20029;-68
2021/01/28 04:25:26;;;;;;;3.60;2.00;;;2.60;98.00;;;;;;5023335;28;20032;-68
2021/01/28 04:27:53;;;;;;;3.78;2.33;;;2.60;98.00;;;;;;5033556;28;20083;-69
2021/01/28 04:30:29;;;;;;;5.95;2.95;;;2.60;98.00;;;;;;5026301;28;20419;-69
2021/01/28 04:32:55;;;;;;;6.07;2.97;;;2.70;98.00;;;;;;5022698;28;20022;-70
2021/01/28 04:35:21;;;;;;;5.30;3.33;;;2.70;98.00;;;;;;5029101;28;20079;-70
2021/01/28 04:37:47;;;;;;;4.65;2.90;;;2.70;98.00;;;;;;5026259;28;20069;-69
2021/01/28 04:40:31;;;;;;;5.43;3.05;;;2.70;98.00;;;;;;5032381;28;20072;-69
2021/01/28 04:42:58;;;;;;;5.67;3.50;;;2.70;98.00;;;;;;5024709;28;20033;-70
2021/01/28 04:45:29;;;;;;;7.63;3.45;;;2.70;98.00;;;;;;5026171;28;20481;-70
2021/01/28 04:48:00;;;;;;;5.60;3.03;;;2.70;98.00;;;;;;5025987;28;20485;-70
2021/01/28 04:50:34;;;;;;;5.93;3.05;;;2.80;98.00;;;;;;5025419;28;20545;-68
2021/01/28 04:53:02;;;;;;;;;;;2.80;98.00;;;;;;5030345;28;20469;-70
2021/01/28 04:55:43;;;;;;;5.47;3.33;;;2.80;98.00;;;;;;5026830;28;19924;-69
2021/01/28 04:58:09;;;;;;;5.55;3.30;;;2.80;98.00;;;;;;5028651;28;20029;-69
2021/01/28 05:00:34;;;;;;;5.53;3.40;;;2.70;98.00;;;;;;5029274;28;20083;-70
2021/01/28 05:03:29;;;;;;;6.78;3.67;;;2.70;98.00;;;;;;5026731;28;20380;-70
2021/01/28 05:06:00;;;;;;;6.07;3.13;;;2.80;98.00;;;;;;5027015;28;20044;-70
2021/01/28 05:08:26;;;;;;;5.50;3.20;;;2.80;98.00;;;;;;5029529;28;20038;-70
2021/01/28 05:10:55;;;;;;;6.43;3.83;;;2.80;98.00;;;;;;5027558;28;20112;-68
2021/01/28 05:13:26;;;;;;;10.60;4.50;;;2.80;98.00;;;;;;5029171;28;20041;-69
2021/01/28 05:15:58;;;;;;;14.15;6.80;;;2.80;98.00;;;;;;5026452;28;20026;-71
2021/01/28 05:18:36;;;;;;;7.35;3.42;;;2.80;98.00;;;;;;5024945;28;20049;-69
2021/01/28 05:21:16;;;;;;;11.20;5.40;;;2.90;98.00;;;;;;5026534;28;20026;-70
2021/01/28 05:23:43;;;;;;;8.80;4.53;;;2.90;98.00;;;;;;5030681;28;20036;-69
2021/01/28 05:26:32;;;;;;;6.05;3.90;;;2.90;98.00;;;;;;5025318;28;20099;-71
2021/01/28 05:29:15;;;;;;;6.65;4.30;;;2.90;98.00;;;;;;5029761;28;20034;-69
2021/01/28 05:31:41;;;;;;;9.77;4.72;;;3.00;98.00;;;;;;5023337;28;20042;-69
2021/01/28 05:34:13;;;;;;;4.75;2.67;;;3.00;98.00;;;;;;5029787;28;20116;-69
2021/01/28 05:36:51;;;;;;;6.25;3.38;;;3.00;98.00;;;;;;5032020;28;20303;-69
2021/01/28 05:39:31;;;;;;;6.63;3.28;;;3.20;98.00;;;;;;5030013;28;20315;-70
2021/01/28 05:42:21;;;;;;;4.00;2.30;;;3.20;98.00;;;;;;5034123;28;20461;-69
2021/01/28 05:44:47;;;;;;;5.53;3.33;;;3.30;98.00;;;;;;5025223;28;20047;-69
2021/01/28 05:47:26;;;;;;;7.70;4.78;;;3.30;98.00;;;;;;5028567;28;20389;-69
2021/01/28 05:49:52;;;;;;;11.35;5.60;;;3.20;98.00;;;;;;5032991;28;20021;-69
2021/01/28 05:52:29;;;;;;;21.05;9.27;;;3.10;98.00;;;;;;5030943;28;20037;-71
2021/01/28 05:55:04;;;;;;;20.20;9.70;;;3.10;98.00;;;;;;5031060;28;20041;-71
2021/01/28 05:57:42;;;;;;;11.95;5.70;;;3.10;98.00;;;;;;5029686;28;20029;-71
2021/01/28 06:00:29;;;;;;;4.40;2.20;;;3.20;98.00;;;;;;5031015;28;20041;-71
2021/01/28 06:03:48;;;;;;;2.25;1.50;;;3.20;98.00;;;;;;5033189;28;20089;-71
2021/01/28 06:06:42;;;;;;;2.95;1.40;;;3.60;98.00;;;;;;4996405;28;20030;-70
2021/01/28 06:09:24;;;;;;;3.17;1.60;;;3.80;98.00;;;;;;5026491;28;20112;-70
2021/01/28 06:12:30;;;;;;;2.80;1.50;;;3.80;98.00;;;;;;5031234;28;20027;-72
2021/01/28 06:15:21;;;;;;;2.05;1.20;;;3.80;98.00;;;;;;5019954;28;20041;-72
2021/01/28 06:18:16;;;;;;;2.92;1.60;;;3.90;98.00;;;;;;5032226;28;20060;-71
2021/01/28 06:21:08;;;;;;;2.70;1.50;;;3.90;98.00;;;;;;5026535;28;20024;-72
2021/01/28 06:23:50;;;;;;;1.70;1.10;;;3.60;98.00;;;;;;5026885;28;20025;-71
2021/01/28 06:26:21;;;;;;;1.65;1.20;;;3.70;98.00;;;;;;5034072;28;20029;-72
2021/01/28 06:29:09;;;;;;;2.47;1.35;;;3.70;98.00;;;;;;5020031;28;20100;-72
2021/01/28 06:32:07;;;;;;;2.17;1.20;;;3.60;98.00;;;;;;5029787;28;20036;-70
2021/01/28 06:35:17;;;;;;;1.38;1.00;;;3.70;98.00;;;;;;5025858;28;20021;-71
2021/01/28 06:37:57;;;;;;;1.60;1.10;;;4.10;98.00;;;;;;5038828;28;20029;-70
2021/01/28 06:40:30;;;;;;;2.00;1.13;;;4.20;98.00;;;;;;5029866;28;20356;-71
2021/01/28 06:43:04;;;;;;;1.70;1.02;;;4.10;98.00;;;;;;5031527;28;20029;-72
2021/01/28 06:45:38;;;;;;;1.35;0.95;;;4.00;98.00;;;;;;5036421;28;20033;-72
2021/01/28 06:48:09;;;;;;;1.95;1.00;;;4.20;98.00;;;;;;5031855;28;20386;-71
2021/01/28 06:50:52;;;;;;;0.77;0.77;;;4.50;98.00;;;;;;5035980;28;20025;-71
2021/01/28 06:53:36;;;;;;;1.65;1.00;;;4.50;98.00;;;;;;5028644;28;20048;-73
2021/01/28 06:56:06;;;;;;;;;;;4.60;98.00;;;;;;5031254;28;20029;-71
2021/01/28 06:58:53;;;;;;;1.25;1.00;;;4.40;98.00;;;;;;5034060;28;20462;-71
2021/01/28 07:01:44;;;;;;;1.63;1.10;;;4.20;98.00;;;;;;5028995;28;20026;-72
2021/01/28 07:04:34;;;;;;;3.47;1.67;;;4.10;98.00;;;;;;5030952;28;20104;-71
2021/01/28 07:07:07;;;;;;;2.13;1.33;;;4.00;98.00;;;;;;5040721;28;20025;-71
2021/01/28 07:09:41;;;;;;;4.28;2.08;;;3.90;98.00;;;;;;5039289;28;20036;-72
2021/01/28 07:12:09;;;;;;;2.83;1.13;;;3.80;98.00;;;;;;5036114;28;20021;-71
2021/01/28 07:14:35;;;;;;;1.33;0.98;;;3.80;98.00;;;;;;5034683;28;20033;-71
2021/01/28 07:17:11;;;;;;;2.00;1.00;;;4.10;98.00;;;;;;5035818;28;20033;-71
2021/01/28 07:19:41;;;;;;;2.10;1.17;;;4.10;98.00;;;;;;5034409;28;20104;-72
2021/01/28 07:22:32;;;;;;;1.92;1.10;;;4.10;98.00;;;;;;5029556;28;20045;-71
2021/01/28 07:25:26;;;;;;;2.42;1.30;;;4.10;98.00;;;;;;5031342;28;20025;-73
2021/01/28 07:28:06;;;;;;;1.13;0.90;;;4.30;98.00;;;;;;5033491;28;20487;-74
2021/01/28 07:30:48;;;;;;;1.10;0.88;;;4.70;98.00;;;;;;5032402;28;20044;-74
2021/01/28 07:33:23;;;;;;;1.40;0.93;;;4.60;98.00;;;;;;5028733;28;20022;-76
2021/01/28 07:35:51;;;;;;;1.45;0.95;;;4.70;98.00;;;;;;5035689;28;20029;-73
2021/01/28 07:38:41;;;;;;;1.88;1.10;;;4.60;98.00;;;;;;5034440;28;20402;-73
2021/01/28 07:41:11;;;;;;;1.70;1.13;;;4.50;98.00;;;;;;5031490;28;20060;-74
2021/01/28 07:43:43;;;;;;;2.45;1.50;;;4.50;98.00;;;;;;5034517;28;20021;-74
2021/01/28 07:46:27;;;;;;;1.48;0.88;;;4.50;98.00;;;;;;5035512;28;20116;-73
2021/01/28 07:49:16;;;;;;;1.15;0.88;;;4.70;98.00;;;;;;5030640;28;20072;-73
2021/01/28 07:51:43;;;;;;;0.90;0.80;;;4.70;98.00;;;;;;5028154;28;20112;-74
2021/01/28 07:54:24;;;;;;;1.27;0.90;;;4.90;98.00;;;;;;5031531;28;20029;-74
2021/01/28 07:57:19;;;;;;;0.70;0.70;;;5.00;98.00;;;;;;5029605;28;20144;-74
2021/01/28 07:59:58;;;;;;;2.88;0.88;;;5.10;98.00;;;;;;5031082;28;21630;-73
2021/01/28 08:02:28;;;;;;;1.75;0.80;;;5.10;98.00;;;;;;5025332;28;20033;-74
2021/01/28 08:05:03;;;;;;;0.77;0.77;;;5.10;98.00;;;;;;5025655;28;20029;-73
2021/01/28 08:07:47;;;;;;;0.98;0.80;;;5.20;98.00;;;;;;5034272;28;20021;-74
2021/01/28 08:10:26;;;;;;;1.45;1.08;;;5.20;98.00;;;;;;5028645;28;20439;-75
2021/01/28 08:12:56;;;;;;;1.23;1.00;;;5.00;98.00;;;;;;5028439;28;20037;-76
2021/01/28 08:15:34;;;;;;;0.98;0.80;;;5.10;98.00;;;;;;5027968;28;20112;-75
2021/01/28 08:18:23;;;;;;;1.55;1.00;;;5.10;98.00;;;;;;5034186;28;20480;-73
2021/01/28 08:20:50;;;;;;;0.60;0.60;;;5.20;98.00;;;;;;5026193;28;20029;-74
2021/01/28 08:23:36;;;;;;;0.80;0.80;;;5.30;98.00;;;;;;5034506;28;20052;-74
2021/01/28 08:26:09;;;;;;;1.15;0.85;;;5.50;98.00;;;;;;5032315;28;20431;-74
2021/01/28 08:28:38;;;;;;;1.20;0.90;;;5.70;98.00;;;;;;5033039;28;20100;-74
2021/01/28 08:31:23;;;;;;;1.25;0.77;;;5.80;98.00;;;;;;5034568;28;20022;-76
2021/01/28 08:34:00;;;;;;;0.75;0.70;;;5.70;98.00;;;;;;5030396;28;20405;-75
2021/01/28 08:36:49;;;;;;;0.70;0.70;;;5.60;98.00;;;;;;5026410;28;20048;-76
2021/01/28 08:39:15;;;;;;;0.70;0.70;;;5.50;98.00;;;;;;5031272;28;20022;-76
2021/01/28 08:41:42;;;;;;;0.73;0.73;;;5.40;98.00;;;;;;5032304;28;20029;-76
2021/01/28 08:44:11;;;;;;;1.00;0.80;;;5.40;98.00;;;;;;5031295;28;20030;-76
2021/01/28 08:46:40;;;;;;;0.80;0.70;;;5.40;98.00;;;;;;5032574;28;20029;-77
2021/01/28 08:49:15;;;;;;;0.73;0.70;;;5.50;98.00;;;;;;5052005;28;20032;-77
2021/01/28 08:51:44;;;;;;;1.70;0.80;;;5.70;98.00;;;;;;5022956;28;20024;-77
2021/01/28 08:54:22;;;;;;;13.77;7.22;;;5.70;98.00;;;;;;5033112;28;20025;-76
2021/01/28 08:56:52;;;;;;;1.52;1.10;;;5.50;98.00;;;;;;5031931;28;20033;-78
2021/01/28 08:59:30;;;;;;;1.70;1.08;;;5.40;98.00;;;;;;5032138;28;20175;-77
2021/01/28 09:01:59;;;;;;;2.40;1.50;;;5.40;98.00;;;;;;5032357;28;20128;-77
2021/01/28 09:04:35;;;;;;;0.95;0.70;;;5.60;98.00;;;;;;5034344;28;20476;-77
2021/01/28 09:07:04;;;;;;;1.73;1.08;;;5.90;98.00;;;;;;5033825;28;20037;-77
2021/01/28 09:09:33;;;;;;;1.90;0.90;;;5.80;98.00;;;;;;5037470;28;20029;-76
2021/01/28 09:12:20;;;;;;;1.27;0.90;;;5.80;98.00;;;;;;5037752;28;20018;-77
2021/01/28 09:14:46;;;;;;;0.65;0.60;;;5.90;98.00;;;;;;5036562;28;20414;-76
2021/01/28 09:17:25;;;;;;;2.00;1.35;;;5.90;98.00;;;;;;5032131;28;20029;-76
2021/01/28 09:19:54;;;;;;;0.70;0.70;;;5.80;98.00;;;;;;5043015;28;20080;-77
2021/01/28 09:22:37;;;;;;;1.48;1.10;;;5.70;98.00;;;;;;5037907;28;20033;-75
2021/01/28 09:25:23;;;;;;;1.25;0.90;;;5.70;98.00;;;;;;5035272;28;20449;-77
2021/01/28 09:28:22;;;;;;;1.42;0.80;;;5.80;98.00;;;;;;5036980;28;20062;-77
2021/01/28 09:30:53;;;;;;;0.70;0.70;;;6.00;98.00;;;;;;5045041;28;20120;-75
2021/01/28 09:33:38;;;;;;;1.20;0.80;;;6.00;98.00;;;;;;5038858;28;20030;-76
2021/01/28 09:36:14;;;;;;;0.60;0.60;;;6.00;98.00;;;;;;5031104;28;20034;-75
2021/01/28 09:38:40;;;;;;;0.70;0.70;;;6.20;98.00;;;;;;5028694;28;20406;-76
2021/01/28 09:41:19;;;;;;;0.95;0.70;;;6.50;98.00;;;;;;5037161;28;20057;-75
2021/01/28 09:43:45;;;;;;;0.60;0.60;;;6.50;98.00;;;;;;5036754;28;20087;-75
2021/01/28 09:46:29;;;;;;;0.60;0.60;;;6.50;98.00;;;;;;5037221;28;20060;-74
2021/01/28 09:48:58;;;;;;;0.60;0.60;;;6.70;98.00;;;;;;5030925;28;20120;-75
2021/01/28 09:51:34;;;;;;;1.08;0.80;;;6.70;98.00;;;;;;5028466;28;20050;-75
2021/01/28 09:54:16;;;;;;;0.60;0.60;;;6.70;98.00;;;;;;5034459;28;20044;-75
2021/01/28 09:56:43;;;;;;;0.63;0.63;;;6.70;98.00;;;;;;5030719;28;20048;-75
2021/01/28 09:59:10;;;;;;;1.13;0.90;;;6.80;98.00;;;;;;5036263;28;20075;-75
2021/01/28 10:01:36;;;;;;;4.57;1.42;;;6.80;98.00;;;;;;5035513;28;20045;-74
2021/01/28 10:04:02;;;;;;;0.80;0.80;;;6.80;98.00;;;;;;5036161;28;20032;-75
2021/01/28 10:06:28;;;;;;;3.65;0.73;;;6.70;98.00;;;;;;5035768;28;20017;-75
2021/01/28 10:08:54;;;;;;;1.08;0.90;;;6.80;98.00;;;;;;5033209;28;20661;-74
2021/01/28 10:11:20;;;;;;;0.73;0.73;;;7.00;98.00;;;;;;5039186;28;20025;-75
2021/01/28 10:13:48;;;;;;;0.73;0.70;;;6.90;98.00;;;;;;5037620;28;20028;-75
2021/01/28 10:16:14;;;;;;;0.70;0.70;;;6.90;98.00;;;;;;5030537;28;20037;-75
2021/01/28 10:18:40;;;;;;;1.55;0.98;;;6.90;98.00;;;;;;5035636;28;20087;-75
2021/01/28 10:21:06;;;;;;;0.85;0.70;;;6.90;98.00;;;;;;5037183;28;20033;-75
2021/01/28 10:23:31;;;;;;;1.52;0.90;;;6.90;98.00;;;;;;5038566;28;20033;-76
2021/01/28 10:25:57;;;;;;;1.10;0.88;;;6.80;98.00;;;;;;5035574;28;20104;-75
2021/01/28 10:28:23;;;;;;;0.98;0.80;;;6.80;98.00;;;;;;5034957;28;20414;-75
2021/01/28 10:30:49;;;;;;;1.45;1.00;;;6.80;98.00;;;;;;5035267;28;20022;-74
2021/01/28 10:33:15;;;;;;;1.08;0.90;;;6.80;98.00;;;;;;5036704;28;20322;-75
2021/01/28 10:35:42;;;;;;;2.40;1.27;;;6.80;98.00;;;;;;5033661;28;20036;-74
2021/01/28 10:38:09;;;;;;;1.35;0.90;;;6.80;98.00;;;;;;5035972;28;20036;-75
2021/01/28 10:40:35;;;;;;;6.60;3.00;;;6.80;98.00;;;;;;5027076;28;20103;-75
2021/01/28 10:43:05;;;;;;;3.13;1.30;;;6.70;98.00;;;;;;5038547;28;20387;-75
2021/01/28 10:45:37;;;;;;;1.83;1.05;;;6.70;98.00;;;;;;5028882;28;20049;-74
2021/01/28 10:48:04;;;;;;;8.70;4.53;;;6.80;98.00;;;;;;5036674;28;20305;-73
2021/01/28 10:50:31;;;;;;;1.65;1.00;;;6.90;98.00;;;;;;5028701;28;20045;-74
2021/01/28 10:52:57;;;;;;;2.25;1.10;;;7.00;98.00;;;;;;5036545;28;20142;-74
2021/01/28 10:55:24;;;;;;;0.85;0.70;;;7.00;98.00;;;;;;5033758;28;20442;-76
2021/01/28 10:57:50;;;;;;;0.90;0.73;;;7.00;98.00;;;;;;5036527;28;20029;-74
2021/01/28 11:00:17;;;;;;;1.98;0.90;;;7.10;98.00;;;;;;5035733;28;20047;-74
2021/01/28 11:02:43;;;;;;;2.10;1.05;;;7.00;98.00;;;;;;5034285;28;20426;-74
2021/01/28 11:05:19;;;;;;;0.65;0.65;;;7.00;98.00;;;;;;5028192;28;20029;-74
2021/01/28 11:07:45;;;;;;;1.75;0.90;;;7.00;98.00;;;;;;5040503;28;20112;-75
2021/01/28 11:10:12;;;;;;;4.57;1.40;;;7.10;98.00;;;;;;5031237;28;20084;-74
2021/01/28 11:12:38;;;;;;;2.67;1.30;;;7.20;98.00;;;;;;5032391;28;20112;-74
2021/01/28 11:15:06;;;;;;;0.73;0.70;;;7.30;98.00;;;;;;5031369;28;20112;-75
2021/01/28 11:17:32;;;;;;;1.45;0.95;;;7.30;98.00;;;;;;5034022;28;20026;-74
2021/01/28 11:19:57;;;;;;;0.60;0.60;;;7.40;98.00;;;;;;5030351;28;20160;-73
2021/01/28 11:22:23;;;;;;;1.60;0.90;;;7.40;98.00;;;;;;5032379;28;20029;-72
2021/01/28 11:24:49;;;;;;;0.85;0.70;;;7.40;98.00;;;;;;5024761;28;20025;-74
2021/01/28 11:27:14;;;;;;;1.38;0.80;;;7.50;98.00;;;;;;5029482;28;20108;-73
2021/01/28 11:29:41;;;;;;;0.63;0.63;;;7.60;98.00;;;;;;5030008;28;20124;-72
2021/01/28 11:32:07;;;;;;;1.48;0.80;;;7.70;98.00;;;;;;5030789;28;20108;-73
2021/01/28 11:34:33;;;;;;;1.42;0.80;;;7.80;98.00;;;;;;5031678;28;20028;-71
2021/01/28 11:36:59;;;;;;;0.95;0.60;;;7.80;98.00;;;;;;5033143;28;20037;-72
2021/01/28 11:39:24;;;;;;;1.92;1.10;;;7.80;98.00;;;;;;5031593;28;20026;-72
2021/01/28 11:41:50;;;;;;;0.85;0.63;;;7.90;98.00;;;;;;5033475;28;20319;-71
2021/01/28 11:44:16;;;;;;;1.23;0.77;;;7.90;98.00;;;;;;5027880;28;20390;-73
2021/01/28 11:46:41;;;;;;;0.60;0.60;;;7.90;98.00;;;;;;5032287;28;20045;-72
2021/01/28 11:49:07;;;;;;;1.33;0.88;;;8.00;98.00;;;;;;5033894;28;20061;-72
2021/01/28 11:51:33;;;;;;;1.10;0.65;;;8.00;98.00;;;;;;5034771;28;20773;-72
2021/01/28 11:53:58;;;;;;;1.20;0.70;;;8.20;98.00;;;;;;5030619;28;20056;-71
2021/01/28 11:56:24;;;;;;;1.25;0.70;;;8.20;98.00;;;;;;5029681;28;20488;-71
2021/01/28 11:58:50;;;;;;;0.60;0.60;;;8.20;98.00;;;;;;5032471;28;20021;-71
2021/01/28 12:01:15;;;;;;;0.70;0.60;;;8.30;98.00;;;;;;5030780;28;20288;-71
2021/01/28 12:03:41;;;;;;;1.95;0.80;;;8.40;98.00;;;;;;5029265;28;20079;-71
2021/01/28 12:06:07;;;;;;;1.50;0.70;;;8.50;98.00;;;;;;5024451;28;20450;-72
2021/01/28 12:08:33;;;;;;;1.25;0.90;;;8.50;98.00;;;;;;5027504;28;20025;-71
2021/01/28 12:10:58;;;;;;;1.10;0.70;;;8.50;98.00;;;;;;5031727;28;20040;-71
2021/01/28 12:13:24;;;;;;;2.55;0.80;;;8.50;98.00;;;;;;5029834;28;20025;-71
2021/01/28 12:15:49;;;;;;;0.75;0.65;;;8.50;98.00;;;;;;5033294;28;20029;-71
2021/01/28 12:18:15;;;;;;;0.95;0.70;;;8.60;98.00;;;;;;5032904;28;20029;-72
2021/01/28 12:20:41;;;;;;;1.10;0.80;;;8.50;98.00;;;;;;5030980;28;20033;-72
2021/01/28 12:23:06;;;;;;;0.88;0.70;;;8.50;98.00;;;;;;5032864;28;20045;-72
2021/01/28 12:25:32;;;;;;;1.33;0.85;;;8.60;98.00;;;;;;5032844;28;20025;-70
2021/01/28 12:27:58;;;;;;;5.32;1.08;;;8.60;98.00;;;;;;5033940;28;20048;-70
2021/01/28 12:30:25;;;;;;;0.90;0.70;;;8.60;98.00;;;;;;5026359;28;20087;-71
2021/01/28 12:32:51;;;;;;;1.65;0.80;;;8.50;98.00;;;;;;5024147;28;20195;-71
2021/01/28 12:35:19;;;;;;;2.45;1.13;;;8.60;98.00;;;;;;5040139;28;20116;-70
2021/01/28 12:37:44;;;;;;;4.38;1.45;;;8.70;98.00;;;;;;5033696;28;20476;-72
2021/01/28 12:40:13;;;;;;;2.50;1.30;;;8.70;98.00;;;;;;5032738;28;20046;-71
2021/01/28 12:42:39;;;;;;;6.20;2.78;;;8.60;98.00;;;;;;5040160;28;20057;-70
2021/01/28 12:45:05;;;;;;;1.77;0.93;;;8.60;98.00;;;;;;5033361;28;20065;-71
2021/01/28 12:47:31;;;;;;;1.83;1.05;;;8.70;98.00;;;;;;5031587;28;20032;-72
2021/01/28 12:49:57;;;;;;;2.15;0.93;;;8.70;98.00;;;;;;5034401;28;20406;-71
2021/01/28 12:52:23;;;;;;;1.35;0.93;;;8.80;98.00;;;;;;5031245;28;20036;-72
2021/01/28 12:54:50;;;;;;;0.98;0.70;;;8.70;98.00;;;;;;5032679;28;20030;-71
2021/01/28 12:57:16;;;;;;;1.52;0.80;;;8.60;98.00;;;;;;5023826;28;20308;-71
2021/01/28 12:59:41;;;;;;;1.60;1.00;;;8.40;98.00;;;;;;5031357;28;20037;-71
2021/01/28 13:02:07;;;;;;;3.67;1.55;;;8.40;98.00;;;;;;5027698;28;20032;-70
2021/01/28 13:04:33;;;;;;;1.17;0.80;;;8.40;98.00;;;;;;5030105;28;20033;-71
2021/01/28 13:06:59;;;;;;;2.38;1.10;;;8.30;98.00;;;;;;5033234;28;20429;-70
2021/01/28 13:09:25;;;;;;;4.88;1.85;;;8.20;98.00;;;;;;5029335;28;20041;-69
2021/01/28 13:11:50;;;;;;;2.75;1.55;;;8.20;98.00;;;;;;5037574;28;20049;-71
2021/01/28 13:14:17;;;;;;;2.30;0.95;;;8.30;98.00;;;;;;5025577;28;20032;-70
2021/01/28 13:16:43;;;;;;;3.00;1.20;;;8.40;98.00;;;;;;5028048;28;20029;-71
2021/01/28 13:19:09;;;;;;;3.22;1.20;;;8.30;98.00;;;;;;5030377;28;20114;-71